createdAt,value
2023-02-06T00:01:38.404Z,35.78
2023-02-06T00:04:05.577Z,35.72
2023-02-06T00:06:33.192Z,33.88
2023-02-06T00:09:01.122Z,35.13
2023-02-06T00:11:28.362Z,35.10
2023-02-06T00:13:55.307Z,30.50
2023-02-06T00:16:22.433Z,31.80
2023-02-06T00:18:50.049Z,32.35
2023-02-06T00:21:22.009Z,32.25
2023-02-06T00:23:49.571Z,31.88
2023-02-06T00:26:17.289Z,32.17
2023-02-06T00:28:45.429Z,29.10
2023-02-06T00:31:13.778Z,27.83
2023-02-06T00:33:40.988Z,30.23
2023-02-06T00:36:08.683Z,30.05
2023-02-06T00:38:37.814Z,29.85
2023-02-06T00:41:05.501Z,29.92
2023-02-06T00:43:32.615Z,29.20
2023-02-06T00:45:59.934Z,30.75
2023-02-06T00:48:27.330Z,30.60
2023-02-06T00:50:54.727Z,28.77
2023-02-06T00:53:22.243Z,30.05
2023-02-06T00:55:49.413Z,30.27
2023-02-06T00:58:16.417Z,30.10
2023-02-06T01:00:44.002Z,29.98
2023-02-06T01:03:11.587Z,30.27
2023-02-06T01:05:39.459Z,29.48
2023-02-06T01:08:06.425Z,29.73
2023-02-06T01:10:33.680Z,31.38
2023-02-06T01:13:00.896Z,31.17
2023-02-06T01:15:28.159Z,30.80
2023-02-06T01:17:56.032Z,31.27
2023-02-06T01:20:24.001Z,31.00
2023-02-06T01:22:51.173Z,29.38
2023-02-06T01:25:18.597Z,31.50
2023-02-06T01:27:45.636Z,30.00
2023-02-06T01:30:14.041Z,31.15
2023-02-06T01:32:41.841Z,31.65
2023-02-06T01:35:10.785Z,30.48
2023-02-06T01:37:39.113Z,32.55
2023-02-06T01:40:11.814Z,32.67
2023-02-06T01:42:38.804Z,30.73
2023-02-06T01:45:44.293Z,31.88
2023-02-06T01:48:16.293Z,28.83
2023-02-06T01:50:50.120Z,32.15
2023-02-06T01:53:18.202Z,33.30
2023-02-06T01:55:47.663Z,34.03
2023-02-06T01:58:19.265Z,33.15
2023-02-06T02:00:46.861Z,32.60
2023-02-06T02:03:14.231Z,31.98
2023-02-06T02:05:43.393Z,32.75
2023-02-06T02:08:22.510Z,32.28
2023-02-06T02:10:50.709Z,32.30
2023-02-06T02:13:17.638Z,30.20
2023-02-06T02:15:56.230Z,29.73
2023-02-06T02:18:47.908Z,29.48
2023-02-06T02:21:39.012Z,31.38
2023-02-06T02:24:12.217Z,29.65
2023-02-06T02:26:58.339Z,31.13
2023-02-06T02:29:51.706Z,30.58
2023-02-06T02:32:49.897Z,34.60
2023-02-06T02:35:40.663Z,31.73
2023-02-06T02:38:24.040Z,32.35
2023-02-06T02:40:59.386Z,31.95
2023-02-06T02:43:43.509Z,33.92
2023-02-06T02:46:31.629Z,32.17
2023-02-06T02:49:05.059Z,32.65
2023-02-06T02:51:35.582Z,31.20
2023-02-06T02:54:02.827Z,28.30
2023-02-06T02:56:30.524Z,34.35
2023-02-06T02:59:11.568Z,32.97
2023-02-06T03:01:49.648Z,33.30
2023-02-06T03:04:25.233Z,33.47
2023-02-06T03:07:04.182Z,33.10
2023-02-06T03:09:46.342Z,32.75
2023-02-06T03:12:35.159Z,31.70
2023-02-06T03:15:11.080Z,33.33
2023-02-06T03:17:51.425Z,31.33
2023-02-06T03:20:19.536Z,34.38
2023-02-06T03:22:48.913Z,33.45
2023-02-06T03:25:23.472Z,33.88
2023-02-06T03:27:52.723Z,34.47
2023-02-06T03:30:24.000Z,34.33
2023-02-06T03:32:54.490Z,35.03
2023-02-06T03:35:26.771Z,34.65
2023-02-06T03:37:54.227Z,34.80
2023-02-06T03:40:22.120Z,32.85
2023-02-06T03:42:53.586Z,35.80
2023-02-06T03:45:42.741Z,34.00
2023-02-06T03:48:19.073Z,35.63
2023-02-06T03:50:50.311Z,35.15
2023-02-06T03:53:19.024Z,35.67
2023-02-06T03:55:47.501Z,34.28
2023-02-06T03:58:15.026Z,34.38
2023-02-06T04:00:45.991Z,33.75
2023-02-06T04:03:14.418Z,35.88
2023-02-06T04:05:41.643Z,33.97
2023-02-06T04:08:08.681Z,33.30
2023-02-06T04:10:36.012Z,36.28
2023-02-06T04:13:02.998Z,34.70
2023-02-06T04:15:30.222Z,38.72
2023-02-06T04:18:01.049Z,37.90
2023-02-06T04:20:29.871Z,35.42
2023-02-06T04:22:57.642Z,36.88
2023-02-06T04:25:25.278Z,35.63
2023-02-06T04:27:52.272Z,35.78
2023-02-06T04:30:19.689Z,35.80
2023-02-06T04:32:46.662Z,37.10
2023-02-06T04:35:14.091Z,36.38
2023-02-06T04:37:41.180Z,35.22
2023-02-06T04:40:09.131Z,34.75
2023-02-06T04:42:36.076Z,34.53
2023-02-06T04:45:03.466Z,37.45
2023-02-06T04:47:30.507Z,36.30
2023-02-06T04:49:57.703Z,36.83
2023-02-06T04:52:24.613Z,38.35
2023-02-06T04:54:51.762Z,36.35
2023-02-06T04:57:18.662Z,36.22
2023-02-06T04:59:45.862Z,36.47
2023-02-06T05:02:12.885Z,35.40
2023-02-06T05:04:40.088Z,36.38
2023-02-06T05:07:07.080Z,33.95
2023-02-06T05:09:34.357Z,34.22
2023-02-06T05:12:01.226Z,33.33
2023-02-06T05:14:28.464Z,33.55
2023-02-06T05:16:55.669Z,34.60
2023-02-06T05:19:23.167Z,31.88
2023-02-06T05:21:50.129Z,29.65
2023-02-06T05:24:17.327Z,35.00
2023-02-06T05:26:45.090Z,34.42
2023-02-06T05:29:12.411Z,36.35
2023-02-06T05:31:39.292Z,36.58
2023-02-06T05:34:06.569Z,34.35
2023-02-06T05:36:33.441Z,37.92
2023-02-06T05:39:00.684Z,38.30
2023-02-06T05:41:27.635Z,36.88
2023-02-06T05:43:54.769Z,34.72
2023-02-06T05:46:21.820Z,37.38
2023-02-06T05:48:49.276Z,37.13
2023-02-06T05:51:16.586Z,38.30
2023-02-06T05:53:44.242Z,36.42
2023-02-06T05:56:11.138Z,40.03
2023-02-06T05:58:38.316Z,40.63
2023-02-06T06:01:05.661Z,39.35
2023-02-06T06:03:33.566Z,39.38
2023-02-06T06:06:00.590Z,37.47
2023-02-06T06:08:27.878Z,38.67
2023-02-06T06:10:54.736Z,38.50
2023-02-06T06:13:22.093Z,38.53
2023-02-06T06:15:52.710Z,37.95
2023-02-06T06:18:20.949Z,35.47
2023-02-06T06:20:48.380Z,33.65
2023-02-06T06:23:15.623Z,35.70
2023-02-06T06:25:42.812Z,37.53
2023-02-06T06:28:10.364Z,36.10
2023-02-06T06:30:39.004Z,37.67
2023-02-06T06:33:06.271Z,38.45
2023-02-06T06:35:33.230Z,34.42
2023-02-06T06:38:00.396Z,34.13
2023-02-06T06:40:27.350Z,35.22
2023-02-06T06:42:54.805Z,35.78
2023-02-06T06:45:21.957Z,36.58
2023-02-06T06:47:49.196Z,35.70
2023-02-06T06:50:16.488Z,33.03
2023-02-06T06:52:44.003Z,34.85
2023-02-06T06:55:11.214Z,33.08
2023-02-06T06:57:38.454Z,32.85
2023-02-06T07:00:06.082Z,32.28
2023-02-06T07:02:33.321Z,32.03
2023-02-06T07:05:00.479Z,36.85
2023-02-06T07:07:27.863Z,35.38
2023-02-06T07:09:54.820Z,35.80
2023-02-06T07:12:22.365Z,37.47
2023-02-06T07:14:49.311Z,33.65
2023-02-06T07:17:16.455Z,40.83
2023-02-06T07:19:48.057Z,39.38
2023-02-06T07:22:15.786Z,37.58
2023-02-06T07:24:43.085Z,39.95
2023-02-06T07:27:10.477Z,39.65
2023-02-06T07:29:38.026Z,37.53
2023-02-06T07:32:05.771Z,38.00
2023-02-06T07:34:32.735Z,37.85
2023-02-06T07:37:00.795Z,37.45
2023-02-06T07:39:27.931Z,33.58
2023-02-06T07:41:55.585Z,31.42
2023-02-06T07:44:26.874Z,28.98
2023-02-06T07:46:54.088Z,29.13
2023-02-06T07:49:21.100Z,26.83
2023-02-06T07:51:48.515Z,27.58
2023-02-06T07:54:15.821Z,27.13
2023-02-06T07:56:43.700Z,28.40
2023-02-06T07:59:10.818Z,28.10
2023-02-06T08:01:38.055Z,25.45
2023-02-06T08:04:05.235Z,22.60
2023-02-06T08:06:32.557Z,22.63
2023-02-06T08:08:59.490Z,25.58
2023-02-06T08:11:30.174Z,24.73
2023-02-06T08:13:58.338Z,23.58
2023-02-06T08:16:25.773Z,25.73
2023-02-06T08:18:52.805Z,24.30
2023-02-06T08:21:22.826Z,22.42
2023-02-06T08:24:00.543Z,24.98
2023-02-06T08:26:29.517Z,22.75
2023-02-06T08:28:58.245Z,22.33
2023-02-06T08:31:28.911Z,25.23
2023-02-06T08:33:56.334Z,24.17
2023-02-06T08:36:24.519Z,23.15
2023-02-06T08:38:52.563Z,24.58
2023-02-06T08:41:26.151Z,23.75
2023-02-06T08:43:56.916Z,23.85
2023-02-06T08:46:28.362Z,22.85
2023-02-06T08:48:57.304Z,23.27
2023-02-06T08:51:27.897Z,21.88
2023-02-06T08:53:58.736Z,21.75
2023-02-06T08:56:26.983Z,23.25
2023-02-06T08:58:54.438Z,24.55
2023-02-06T09:01:21.931Z,23.58
2023-02-06T09:03:48.925Z,25.38
2023-02-06T09:06:16.214Z,24.00
2023-02-06T09:08:43.387Z,23.95
2023-02-06T09:11:13.442Z,24.92
2023-02-06T09:13:40.415Z,25.38
2023-02-06T09:16:08.461Z,23.77
2023-02-06T09:18:36.217Z,26.60
2023-02-06T09:21:19.045Z,24.70
2023-02-06T09:23:52.135Z,25.35
2023-02-06T09:26:23.307Z,26.10
2023-02-06T09:28:59.342Z,25.77
2023-02-06T09:31:30.792Z,26.02
2023-02-06T09:34:00.319Z,25.83
2023-02-06T09:36:30.210Z,27.20
2023-02-06T09:38:58.356Z,27.20
2023-02-06T09:41:37.731Z,25.63
2023-02-06T09:44:27.763Z,25.33
2023-02-06T09:46:58.008Z,27.90
2023-02-06T09:49:43.169Z,26.42
2023-02-06T09:52:30.705Z,27.30
2023-02-06T09:55:28.543Z,25.05
2023-02-06T09:58:20.730Z,26.05
2023-02-06T10:01:05.895Z,26.17
2023-02-06T10:03:55.188Z,25.17
2023-02-06T10:06:34.627Z,26.02
2023-02-06T10:09:03.752Z,23.90
2023-02-06T10:11:48.392Z,23.38
2023-02-06T10:14:22.469Z,22.48
2023-02-06T10:17:00.142Z,23.55
2023-02-06T10:19:46.704Z,23.95
2023-02-06T10:22:43.674Z,23.30
2023-02-06T10:25:21.104Z,21.35
2023-02-06T10:27:55.173Z,20.95
2023-02-06T10:30:40.124Z,21.83
2023-02-06T10:33:25.712Z,21.40
2023-02-06T10:36:18.315Z,20.30
2023-02-06T10:39:22.591Z,19.85
2023-02-06T10:41:58.701Z,20.92
2023-02-06T10:44:37.484Z,18.42
2023-02-06T10:47:15.579Z,16.67
2023-02-06T10:49:50.815Z,18.77
2023-02-06T10:52:35.896Z,21.63
2023-02-06T10:55:28.331Z,20.65
2023-02-06T10:58:17.125Z,19.95
2023-02-06T11:00:46.121Z,19.33
2023-02-06T11:03:19.150Z,17.67
2023-02-06T11:05:46.296Z,17.25
2023-02-06T11:08:13.450Z,17.45
2023-02-06T11:10:40.727Z,22.63
2023-02-06T11:13:23.349Z,14.80
2023-02-06T11:16:02.652Z,14.82
2023-02-06T11:18:37.914Z,14.48
2023-02-06T11:21:05.859Z,13.90
2023-02-06T11:23:35.130Z,14.75
2023-02-06T11:26:15.537Z,16.75
2023-02-06T11:29:08.839Z,17.17
2023-02-06T11:31:58.574Z,15.77
2023-02-06T11:34:27.999Z,15.82
2023-02-06T11:37:06.956Z,14.75
2023-02-06T11:39:35.609Z,20.35
2023-02-06T11:42:18.635Z,17.92
2023-02-06T11:44:50.719Z,15.35
2023-02-06T11:47:37.594Z,14.13
2023-02-06T11:50:14.324Z,14.90
2023-02-06T11:52:46.589Z,15.75
2023-02-06T11:55:27.297Z,17.77
2023-02-06T11:58:05.395Z,16.33
2023-02-06T12:00:36.145Z,16.33
2023-02-06T12:03:05.601Z,19.08
2023-02-06T12:05:41.829Z,18.75
2023-02-06T12:08:17.179Z,16.02
2023-02-06T12:10:56.139Z,16.88
2023-02-06T12:13:33.839Z,16.85
2023-02-06T12:16:05.714Z,18.30
2023-02-06T12:18:38.373Z,16.88
2023-02-06T12:21:12.316Z,19.58
2023-02-06T12:23:50.314Z,18.73
2023-02-06T12:26:22.078Z,20.17
2023-02-06T12:29:00.280Z,20.05
2023-02-06T12:31:42.482Z,22.05
2023-02-06T12:34:28.881Z,22.52
2023-02-06T12:37:10.963Z,20.27
2023-02-06T12:39:38.113Z,21.55
2023-02-06T12:42:46.826Z,21.90
2023-02-06T12:45:25.816Z,23.02
2023-02-06T12:48:12.331Z,23.73
2023-02-06T12:50:42.999Z,24.38
2023-02-06T12:53:33.277Z,23.52
2023-02-06T12:56:37.194Z,24.95
2023-02-06T12:59:07.383Z,23.92
2023-02-06T13:01:52.683Z,25.40
2023-02-06T13:04:24.389Z,24.50
2023-02-06T13:07:22.044Z,25.08
2023-02-06T13:10:14.002Z,26.02
2023-02-06T13:12:40.906Z,26.83
2023-02-06T13:15:22.508Z,26.55
2023-02-06T13:17:51.294Z,26.50
2023-02-06T13:20:20.970Z,27.40
2023-02-06T13:22:55.300Z,28.13
2023-02-06T13:25:25.084Z,27.80
2023-02-06T13:27:53.493Z,27.98
2023-02-06T13:30:29.918Z,28.25
2023-02-06T13:33:24.723Z,26.27
2023-02-06T13:36:00.691Z,29.42
2023-02-06T13:38:37.976Z,25.35
2023-02-06T13:41:17.160Z,27.77
2023-02-06T13:44:20.737Z,26.50
2023-02-06T13:47:16.184Z,28.70
2023-02-06T13:50:08.785Z,28.55
2023-02-06T13:52:55.135Z,26.23
2023-02-06T13:55:44.939Z,27.77
2023-02-06T13:58:39.374Z,25.58
2023-02-06T14:01:14.672Z,25.88
2023-02-06T14:03:48.538Z,26.27
2023-02-06T14:06:16.163Z,24.75
2023-02-06T14:09:08.980Z,28.27
2023-02-06T14:12:22.530Z,28.27
2023-02-06T14:15:16.639Z,25.88
2023-02-06T14:18:09.388Z,31.67
2023-02-06T14:20:55.276Z,29.50
2023-02-06T14:23:31.415Z,33.40
2023-02-06T14:26:21.081Z,34.13
2023-02-06T14:29:10.249Z,34.83
2023-02-06T14:31:46.227Z,33.00
2023-02-06T14:35:00.926Z,31.48
2023-02-06T14:37:50.500Z,32.70
2023-02-06T14:40:25.741Z,30.88
2023-02-06T14:42:57.643Z,31.70
2023-02-06T14:45:42.061Z,31.02
2023-02-06T14:48:24.546Z,31.52
2023-02-06T14:50:56.694Z,32.25
2023-02-06T14:53:27.378Z,37.85
2023-02-06T14:56:24.137Z,37.53
2023-02-06T14:58:51.481Z,39.70
2023-02-06T15:01:18.735Z,39.60
2023-02-06T15:03:47.873Z,43.70
2023-02-06T15:06:45.038Z,42.53
2023-02-06T15:09:31.938Z,43.10
2023-02-06T15:12:02.488Z,39.47
2023-02-06T15:14:34.946Z,39.30
2023-02-06T15:17:02.956Z,38.50
2023-02-06T15:19:32.833Z,43.78
2023-02-06T15:22:03.278Z,42.85
2023-02-06T15:24:56.939Z,37.70
2023-02-06T15:27:30.903Z,41.58
2023-02-06T15:29:59.385Z,40.63
2023-02-06T15:32:33.566Z,38.22
2023-02-06T15:35:01.904Z,39.20
2023-02-06T15:37:34.528Z,39.70
2023-02-06T15:40:08.818Z,43.13
2023-02-06T15:42:37.071Z,38.95
2023-02-06T15:45:04.810Z,41.20
2023-02-06T15:47:33.084Z,41.88
2023-02-06T15:50:00.640Z,43.05
2023-02-06T15:52:36.748Z,43.85
2023-02-06T15:55:04.974Z,45.13
2023-02-06T15:57:40.814Z,46.00
2023-02-06T16:00:23.427Z,48.90
2023-02-06T16:02:53.332Z,45.05
2023-02-06T16:05:34.512Z,47.85
2023-02-06T16:08:04.064Z,46.10
2023-02-06T16:10:36.339Z,43.20
2023-02-06T16:13:11.072Z,43.38
2023-02-06T16:15:40.362Z,44.42
2023-02-06T16:18:29.222Z,46.70
2023-02-06T16:21:18.209Z,44.85
2023-02-06T16:23:47.170Z,45.15
2023-02-06T16:26:18.710Z,46.38
2023-02-06T16:28:55.348Z,45.47
2023-02-06T16:31:23.114Z,44.45
2023-02-06T16:33:52.554Z,43.88
2023-02-06T16:36:21.055Z,49.47
2023-02-06T16:39:02.778Z,44.50
2023-02-06T16:41:33.907Z,42.10
2023-02-06T16:44:03.289Z,45.00
2023-02-06T16:46:30.831Z,40.97
2023-02-06T16:48:59.388Z,43.58
2023-02-06T16:51:28.833Z,42.53
2023-02-06T16:53:57.329Z,40.42
2023-02-06T16:56:24.804Z,42.03
2023-02-06T16:58:55.514Z,38.60
2023-02-06T17:01:25.880Z,41.45
2023-02-06T17:03:54.386Z,38.95
2023-02-06T17:06:26.139Z,37.50
2023-02-06T17:08:58.514Z,38.60
2023-02-06T17:11:25.587Z,39.25
2023-02-06T17:13:52.978Z,39.15
2023-02-06T17:16:22.733Z,37.40
2023-02-06T17:18:51.658Z,36.53
2023-02-06T17:21:21.706Z,37.03
2023-02-06T17:23:50.671Z,41.00
2023-02-06T17:26:22.692Z,38.58
2023-02-06T17:28:50.703Z,40.05
2023-02-06T17:31:18.520Z,37.67
2023-02-06T17:33:45.866Z,39.95
2023-02-06T17:36:22.004Z,38.55
2023-02-06T17:38:49.669Z,38.55
2023-02-06T17:41:16.582Z,39.40
2023-02-06T17:43:43.994Z,41.88
2023-02-06T17:46:11.840Z,42.17
2023-02-06T17:48:42.701Z,40.70
2023-02-06T17:51:10.874Z,39.85
2023-02-06T17:53:38.147Z,43.60
2023-02-06T17:56:14.816Z,44.83
2023-02-06T17:58:43.632Z,43.60
2023-02-06T18:01:15.828Z,41.50
2023-02-06T18:03:43.789Z,42.50
2023-02-06T18:06:11.388Z,42.65
2023-02-06T18:08:39.468Z,43.22
2023-02-06T18:11:15.513Z,45.10
2023-02-06T18:13:42.840Z,42.03
2023-02-06T18:16:18.219Z,48.45
2023-02-06T18:18:46.747Z,46.03
2023-02-06T18:21:14.416Z,44.38
2023-02-06T18:23:41.742Z,47.25
2023-02-06T18:26:10.002Z,46.22
2023-02-06T18:28:39.024Z,44.92
2023-02-06T18:31:19.413Z,44.42
2023-02-06T18:33:47.237Z,50.90
2023-02-06T18:36:14.151Z,44.70
2023-02-06T18:38:42.579Z,42.97
2023-02-06T18:41:29.598Z,47.38
2023-02-06T18:44:00.274Z,46.63
2023-02-06T18:46:27.378Z,44.93
2023-02-06T18:48:55.113Z,41.97
2023-02-06T18:51:22.224Z,56.13
2023-02-06T18:53:49.991Z,50.53
2023-02-06T18:56:17.298Z,48.75
2023-02-06T18:58:44.549Z,43.25
2023-02-06T19:01:17.712Z,46.63
2023-02-06T19:03:45.430Z,54.42
2023-02-06T19:06:23.632Z,47.08
2023-02-06T19:08:50.826Z,45.33
2023-02-06T19:11:17.859Z,47.75
2023-02-06T19:13:45.294Z,44.28
2023-02-06T19:16:18.269Z,43.65
2023-02-06T19:18:48.230Z,46.05
2023-02-06T19:21:18.247Z,44.03
2023-02-06T19:23:48.307Z,34.97
2023-02-06T19:26:16.914Z,44.85
2023-02-06T19:28:44.717Z,47.95
2023-02-06T19:31:12.960Z,47.40
2023-02-06T19:33:41.691Z,47.70
2023-02-06T19:36:11.475Z,46.90
2023-02-06T19:38:39.873Z,46.65
2023-02-06T19:41:08.821Z,45.50
2023-02-06T19:43:37.125Z,45.17
2023-02-06T19:46:09.108Z,43.60
2023-02-06T19:48:36.452Z,47.33
2023-02-06T19:51:11.440Z,46.53
2023-02-06T19:53:45.257Z,44.55
2023-02-06T19:56:13.874Z,46.05
2023-02-06T19:58:41.718Z,45.92
2023-02-06T20:01:14.379Z,47.20
2023-02-06T20:03:42.555Z,42.25
2023-02-06T20:06:12.497Z,43.72
2023-02-06T20:08:43.143Z,44.10
2023-02-06T20:11:14.623Z,43.22
2023-02-06T20:13:42.860Z,43.28
2023-02-06T20:16:31.637Z,43.80
2023-02-06T20:19:04.787Z,44.15
2023-02-06T20:21:34.741Z,41.63
2023-02-06T20:24:04.381Z,43.25
2023-02-06T20:26:34.765Z,41.30
2023-02-06T20:29:02.647Z,40.55
2023-02-06T20:31:30.349Z,40.42
2023-02-06T20:33:57.639Z,39.72
2023-02-06T20:36:26.376Z,38.13
2023-02-06T20:38:56.467Z,39.00
2023-02-06T20:41:27.518Z,39.42
2023-02-06T20:44:01.476Z,38.25
2023-02-06T20:46:30.802Z,38.25
2023-02-06T20:49:03.373Z,38.88
2023-02-06T20:51:31.128Z,40.33
2023-02-06T20:53:58.796Z,38.92
2023-02-06T20:56:27.140Z,37.33
2023-02-06T20:58:54.577Z,37.55
2023-02-06T21:01:24.191Z,37.75
2023-02-06T21:03:54.690Z,35.95
2023-02-06T21:06:22.307Z,35.40
2023-02-06T21:08:51.587Z,35.17
2023-02-06T21:11:18.904Z,35.38
2023-02-06T21:13:46.102Z,35.10
2023-02-06T21:16:13.712Z,33.88
2023-02-06T21:18:42.672Z,33.90
2023-02-06T21:21:12.558Z,36.08
2023-02-06T21:23:42.236Z,37.33
2023-02-06T21:26:12.091Z,36.80
2023-02-06T21:28:40.662Z,35.15
2023-02-06T21:31:12.283Z,34.85
2023-02-06T21:33:40.134Z,36.85
2023-02-06T21:36:07.876Z,35.67
2023-02-06T21:38:36.286Z,37.38
2023-02-06T21:41:05.755Z,34.72
2023-02-06T21:43:33.860Z,36.03
2023-02-06T21:46:01.572Z,36.00
2023-02-06T21:48:28.871Z,36.85
2023-02-06T21:50:55.874Z,37.15
2023-02-06T21:53:23.497Z,38.83
2023-02-06T21:55:50.612Z,39.22
2023-02-06T21:58:17.816Z,39.92
2023-02-06T22:00:47.094Z,40.95
2023-02-06T22:03:15.910Z,40.17
2023-02-06T22:05:43.173Z,40.35
2023-02-06T22:08:10.498Z,39.83
2023-02-06T22:10:38.047Z,42.03
2023-02-06T22:13:05.965Z,41.95
2023-02-06T22:15:33.858Z,43.58
2023-02-06T22:18:01.605Z,45.22
2023-02-06T22:20:28.753Z,43.70
2023-02-06T22:22:55.933Z,42.90
2023-02-06T22:25:23.069Z,44.33
2023-02-06T22:27:50.323Z,41.60
2023-02-06T22:30:17.552Z,44.28
2023-02-06T22:32:44.773Z,43.17
2023-02-06T22:35:11.720Z,42.08
2023-02-06T22:37:38.922Z,45.75
2023-02-06T22:40:06.218Z,43.80
2023-02-06T22:42:34.784Z,43.30
2023-02-06T22:45:01.754Z,46.30
2023-02-06T22:47:28.990Z,44.97
2023-02-06T22:49:56.016Z,44.22
2023-02-06T22:52:42.071Z,44.05
2023-02-06T22:55:09.563Z,42.97
2023-02-06T22:57:37.287Z,43.75
2023-02-06T23:00:09.673Z,47.78
2023-02-06T23:02:38.744Z,43.90
2023-02-06T23:05:06.292Z,44.03
2023-02-06T23:07:33.480Z,42.65
2023-02-06T23:10:00.387Z,41.55
2023-02-06T23:12:27.987Z,42.63
2023-02-06T23:14:55.058Z,39.85
2023-02-06T23:17:22.186Z,35.83
2023-02-06T23:19:49.141Z,39.90
2023-02-06T23:22:16.317Z,42.35
2023-02-06T23:24:43.207Z,43.78
2023-02-06T23:27:10.512Z,41.20
2023-02-06T23:29:37.486Z,39.45
2023-02-06T23:32:05.504Z,40.22
2023-02-06T23:34:32.357Z,40.38
2023-02-06T23:36:59.624Z,38.75
2023-02-06T23:39:26.474Z,41.40
2023-02-06T23:41:53.756Z,41.17
2023-02-06T23:44:20.836Z,40.35
2023-02-06T23:46:48.008Z,39.50
2023-02-06T23:49:15.134Z,41.25
2023-02-06T23:51:42.462Z,40.15
2023-02-06T23:54:10.098Z,39.53
2023-02-06T23:56:38.249Z,43.35
2023-02-06T23:59:06.302Z,42.55
